Time;durP1;ratioP1;P1;durP2;ratioP2;P2;SDS_P1;SDS_P2;PMS_P1;PMS_P2;Temp;Humidity;BMP_temperature;BMP_pressure;BME280_temperature;BME280_humidity;BME280_pressure;Samples;Min_cycle;Max_cycle;Signal;HPM_P1;HPM_P2
2022/10/24 00:00:45;;;;;;;0.10;0.10;;;;;;;16.43;75.39;100283.31;5143003;27;20042;-77
2022/10/24 00:03:12;;;;;;;0.43;0.43;;;;;;;16.42;75.36;100292.25;5143436;27;20046;-77
2022/10/24 00:05:47;;;;;;;0.00;0.00;;;;;;;16.43;75.85;100280.63;5138647;27;20102;-77
2022/10/24 00:08:15;;;;;;;0.10;0.10;;;;;;;16.42;75.69;100286.91;5140108;27;20016;-77
2022/10/24 00:10:43;;;;;;;0.20;0.20;;;;;;;16.42;75.97;100281.56;5137842;27;20478;-77
2022/10/24 00:13:11;;;;;;;0.10;0.10;;;;;;;16.49;75.53;100291.00;5142454;27;20502;-77
2022/10/24 00:15:38;;;;;;;0.10;0.10;;;;;;;16.47;75.47;100290.25;5143808;27;20022;-77
2022/10/24 00:18:04;;;;;;;0.10;0.10;;;;;;;16.54;75.52;100295.25;5137075;27;20111;-77
2022/10/24 00:20:30;;;;;;;1.10;0.65;;;;;;;16.54;75.72;100298.78;5138586;27;20042;-77
2022/10/24 00:22:56;;;;;;;0.10;0.10;;;;;;;16.57;75.64;100290.59;5137033;27;20023;-78
2022/10/24 00:25:22;;;;;;;0.10;0.10;;;;;;;16.60;75.27;100286.91;5138909;27;20148;-77
2022/10/24 00:27:48;;;;;;;4.05;0.55;;;;;;;16.61;75.74;100281.47;5144159;27;20030;-78
2022/10/24 00:30:14;;;;;;;0.10;0.10;;;;;;;16.63;76.00;100278.69;5144628;27;20022;-77
2022/10/24 00:32:41;;;;;;;0.10;0.10;;;;;;;16.70;75.81;100273.88;5150473;27;20030;-77
2022/10/24 00:35:07;;;;;;;0.10;0.10;;;;;;;16.78;75.10;100277.84;5137071;27;20501;-78
2022/10/24 00:37:34;;;;;;;0.10;0.10;;;;;;;16.80;75.06;100273.28;5140400;27;20287;-78
2022/10/24 00:40:00;;;;;;;0.10;0.10;;;;;;;16.89;74.69;100273.75;5141440;27;20038;-78
2022/10/24 00:42:26;;;;;;;0.93;0.90;;;;;;;16.91;74.12;100279.84;5139245;27;20114;-78
2022/10/24 00:44:53;;;;;;;0.22;0.22;;;;;;;16.97;73.40;100271.50;5140656;27;20019;-78
2022/10/24 00:47:22;;;;;;;0.20;0.20;;;;;;;17.03;73.25;100268.50;5144327;27;20019;-78
2022/10/24 00:50:03;;;;;;;0.20;0.20;;;;;;;17.09;72.84;100267.28;5139190;27;20015;-77
2022/10/24 00:52:34;;;;;;;0.10;0.10;;;;;;;17.09;72.41;100268.16;5142761;27;20021;-78
2022/10/24 00:55:01;;;;;;;0.65;0.65;;;;;;;17.10;72.07;100263.69;5141647;27;20031;-78
2022/10/24 00:57:50;;;;;;;0.10;0.10;;;;;;;17.15;71.63;100264.28;5136110;27;20031;-78
2022/10/24 01:00:26;;;;;;;0.03;0.03;;;;;;;17.12;71.95;100254.59;5140901;27;20035;-77
2022/10/24 01:02:52;;;;;;;0.65;0.65;;;;;;;17.13;71.67;100250.97;5137699;27;20389;-77
2022/10/24 01:05:21;;;;;;;0.28;0.28;;;;;;;17.06;71.46;100257.63;5141005;27;20490;-77
2022/10/24 01:08:22;;;;;;;0.20;0.20;;;;;;;17.13;71.34;100252.78;5146735;27;20031;-78
2022/10/24 01:11:17;;;;;;;0.10;0.10;;;;;;;17.01;71.07;100249.00;5138526;27;20072;-78
2022/10/24 01:13:56;;;;;;;0.15;0.15;;;;;;;17.05;71.12;100260.41;5140528;27;20076;-78
2022/10/24 01:16:31;;;;;;;0.10;0.10;;;;;;;17.04;70.86;100253.31;5140278;27;20023;-78
2022/10/24 01:19:28;;;;;;;0.10;0.10;;;;;;;17.06;70.51;100257.63;5137009;27;20022;-78
2022/10/24 01:22:00;;;;;;;0.10;0.10;;;;;;;17.04;70.45;100253.31;5140080;27;20056;-78
2022/10/24 01:25:00;;;;;;;0.10;0.10;;;;;;;17.03;70.29;100249.75;5139614;27;20054;-78
2022/10/24 01:27:54;;;;;;;0.13;0.13;;;;;;;17.04;70.30;100250.63;5138326;27;20038;-78
2022/10/24 01:30:21;;;;;;;0.10;0.10;;;;;;;17.02;70.53;100250.69;5139362;27;20155;-78
2022/10/24 01:33:15;;;;;;;0.20;0.20;;;;;;;17.06;70.01;100236.22;5141019;27;20027;-78
2022/10/24 01:35:52;;;;;;;0.10;0.10;;;;;;;17.09;69.35;100236.03;5136574;27;20056;-78
2022/10/24 01:38:41;;;;;;;0.10;0.10;;;;;;;17.17;69.81;100229.38;5140757;27;21330;-78
2022/10/24 01:41:12;;;;;;;0.10;0.10;;;;;;;17.20;68.99;100234.56;5142824;27;20031;-78
2022/10/24 01:43:44;;;;;;;0.65;0.57;;;;;;;17.24;68.69;100228.09;5136929;27;20398;-78
2022/10/24 01:46:16;;;;;;;0.63;0.47;;;;;;;17.27;68.59;100230.56;5142914;27;20022;-77
2022/10/24 01:48:51;;;;;;;0.10;0.10;;;;;;;17.27;68.18;100230.56;5136172;27;20520;-78
2022/10/24 01:51:21;;;;;;;0.08;0.08;;;;;;;17.22;67.52;100225.50;5136309;27;20050;-78
2022/10/24 01:53:48;;;;;;;0.10;0.10;;;;;;;17.20;67.79;100238.09;5139372;27;20042;-78
2022/10/24 01:56:14;;;;;;;0.47;0.47;;;;;;;17.16;67.28;100235.69;5144245;27;20039;-78
2022/10/24 01:58:40;;;;;;;0.20;0.20;;;;;;;17.07;67.39;100231.72;5144074;27;20034;-78
2022/10/24 02:01:11;;;;;;;0.10;0.10;;;;;;;17.05;67.46;100229.13;5142440;27;20023;-78
2022/10/24 02:03:43;;;;;;;0.10;0.10;;;;;;;17.01;67.37;100227.59;5141614;27;20028;-78
2022/10/24 02:06:18;;;;;;;0.03;0.03;;;;;;;16.94;67.74;100227.06;5138771;27;20045;-78
2022/10/24 02:08:51;;;;;;;0.10;0.10;;;;;;;16.90;67.40;100224.63;5135874;27;20023;-78
2022/10/24 02:11:17;;;;;;;0.10;0.10;;;;;;;16.85;67.33;100219.53;5142254;27;20046;-78
2022/10/24 02:14:06;;;;;;;0.20;0.20;;;;;;;16.78;66.72;100221.66;5144880;27;20103;-78
2022/10/24 02:16:33;;;;;;;0.00;0.00;;;;;;;16.81;67.16;100224.19;5142241;27;20034;-78
2022/10/24 02:19:00;;;;;;;0.35;0.35;;;;;;;16.80;66.95;100222.47;5143150;27;20065;-78
2022/10/24 02:21:34;;;;;;;0.20;0.20;;;;;;;16.82;66.69;100214.34;5139527;27;20050;-78
2022/10/24 02:24:15;;;;;;;0.10;0.10;;;;;;;16.89;66.76;100220.22;5142220;27;20038;-78
2022/10/24 02:29:53;;;;;;;0.00;0.00;;;;;;;16.92;66.62;100212.03;5110720;27;20175;-78
2022/10/24 02:32:27;;;;;;;0.10;0.10;;;;;;;16.91;66.00;100212.94;5103048;28;20043;-78
2022/10/24 02:34:55;;;;;;;0.00;0.00;;;;;;;16.94;66.24;100205.66;5097166;28;20606;-78
2022/10/24 02:37:23;;;;;;;0.03;0.03;;;;;;;16.93;65.73;100211.09;5090500;28;20032;-78
2022/10/24 02:39:51;;;;;;;0.13;0.13;;;;;;;16.87;65.44;100211.41;5089912;28;20102;-78
2022/10/24 02:42:19;;;;;;;0.00;0.00;;;;;;;16.91;65.76;100212.94;5090602;28;20031;-79
2022/10/24 02:44:47;;;;;;;0.10;0.10;;;;;;;16.81;65.40;100215.31;5085606;28;20600;-78
2022/10/24 02:47:14;;;;;;;0.10;0.10;;;;;;;16.86;65.12;100212.34;5090210;28;20028;-78
2022/10/24 02:49:42;;;;;;;0.32;0.32;;;;;;;16.88;65.41;100208.63;5089603;28;20754;-78
2022/10/24 02:52:08;;;;;;;0.20;0.20;;;;;;;16.98;65.13;100211.69;5091139;28;20085;-78
2022/10/24 02:54:34;;;;;;;0.10;0.10;;;;;;;17.03;64.45;100217.66;5089989;28;20827;-78
2022/10/24 02:57:02;;;;;;;0.10;0.10;;;;;;;17.05;63.61;100207.72;5090498;28;20043;-78
2022/10/24 02:59:29;;;;;;;0.10;0.10;;;;;;;17.09;63.56;100217.28;5089957;28;20028;-78
2022/10/24 03:01:55;;;;;;;0.10;0.10;;;;;;;17.09;63.54;100213.75;5087805;28;20067;-78
2022/10/24 03:04:22;;;;;;;0.10;0.10;;;;;;;17.09;63.19;100206.59;5090038;28;20036;-78
2022/10/24 03:06:49;;;;;;;0.25;0.25;;;;;;;17.13;62.75;100212.63;5090096;28;20088;-78
2022/10/24 03:09:15;;;;;;;0.70;0.55;;;;;;;17.18;63.34;100212.38;5089121;28;20395;-78
2022/10/24 03:11:41;;;;;;;1.55;1.45;;;;;;;17.14;62.33;100206.34;5088829;28;20035;-78
2022/10/24 03:14:07;;;;;;;0.00;0.00;;;;;;;17.16;62.52;100208.91;5089659;28;20035;-78
2022/10/24 03:16:33;;;;;;;0.10;0.10;;;;;;;17.20;62.25;100199.78;5088872;28;20036;-78
2022/10/24 03:19:00;;;;;;;0.10;0.10;;;;;;;17.12;61.60;100198.41;5088831;28;20020;-78
2022/10/24 03:21:26;;;;;;;0.00;0.00;;;;;;;17.11;61.68;100207.38;5086601;28;20020;-78
2022/10/24 03:23:52;;;;;;;0.10;0.10;;;;;;;17.10;61.26;100205.63;5089520;28;20028;-78
2022/10/24 03:26:18;;;;;;;0.10;0.10;;;;;;;17.13;61.49;100208.16;5093876;28;20390;-78
2022/10/24 03:28:44;;;;;;;0.10;0.10;;;;;;;17.17;61.03;100205.28;5088708;28;20043;-78
2022/10/24 03:31:10;;;;;;;0.10;0.10;;;;;;;17.16;60.69;100200.88;5090749;28;20040;-78
2022/10/24 03:33:36;;;;;;;0.00;0.00;;;;;;;17.18;61.07;100212.38;5094235;28;20107;-79
2022/10/24 03:36:03;;;;;;;0.10;0.10;;;;;;;17.19;60.81;100208.75;5093306;28;20078;-79
2022/10/24 03:38:29;;;;;;;0.20;0.20;;;;;;;17.14;60.13;100209.84;5090223;28;20039;-79
2022/10/24 03:40:55;;;;;;;0.10;0.10;;;;;;;17.12;60.20;100201.06;5076039;28;20035;-79
2022/10/24 03:43:21;;;;;;;0.10;0.10;;;;;;;17.17;59.73;100206.16;5075944;28;20036;-78
2022/10/24 03:45:47;;;;;;;0.08;0.08;;;;;;;17.17;59.36;100199.94;5075582;28;20040;-78
2022/10/24 03:48:13;;;;;;;0.10;0.10;;;;;;;17.16;59.08;100219.63;5076459;28;20039;-79
2022/10/24 03:50:39;;;;;;;2.05;1.65;;;;;;;17.27;59.58;100202.00;5076894;28;20031;-79
2022/10/24 03:53:05;;;;;;;0.00;0.00;;;;;;;17.23;59.04;100207.59;5078151;28;20094;-78
2022/10/24 03:55:31;;;;;;;0.10;0.10;;;;;;;17.33;59.20;100214.16;5076799;28;20089;-78
2022/10/24 03:57:57;;;;;;;0.10;0.10;;;;;;;17.36;59.09;100195.25;5089089;28;20058;-78
2022/10/24 04:00:26;;;;;;;0.10;0.10;;;;;;;17.34;59.49;100202.50;5074242;28;20036;-79
2022/10/24 04:02:52;;;;;;;0.10;0.10;;;;;;;17.34;59.28;100202.50;5075067;28;20017;-79
2022/10/24 04:05:19;;;;;;;0.00;0.00;;;;;;;17.31;59.38;100191.97;5075833;28;20024;-78
2022/10/24 04:07:45;;;;;;;0.10;0.10;;;;;;;17.40;59.57;100207.47;5075479;28;20109;-78
2022/10/24 04:10:11;;;;;;;0.10;0.10;;;;;;;17.45;59.20;100191.16;5074615;28;20032;-78
2022/10/24 04:12:37;;;;;;;0.00;0.00;;;;;;;17.42;59.04;100189.53;5075780;28;20028;-78
2022/10/24 04:15:04;;;;;;;4.38;1.75;;;;;;;17.51;59.08;100198.81;5073007;28;20025;-79
2022/10/24 04:17:30;;;;;;;0.10;0.10;;;;;;;17.52;59.63;100191.63;5074934;28;20086;-79
2022/10/24 04:19:56;;;;;;;0.00;0.00;;;;;;;17.51;58.97;100205.97;5074376;28;20040;-79
2022/10/24 04:22:22;;;;;;;0.00;0.00;;;;;;;17.54;59.32;100193.28;5075059;28;20036;-78
2022/10/24 04:24:48;;;;;;;0.10;0.10;;;;;;;17.61;59.00;100194.63;5075478;28;20024;-78
2022/10/24 04:27:15;;;;;;;0.10;0.10;;;;;;;17.62;58.74;100190.16;5075044;28;20044;-79
2022/10/24 04:29:41;;;;;;;0.10;0.10;;;;;;;17.68;58.57;100188.91;5075236;28;20123;-78
2022/10/24 04:32:07;;;;;;;0.10;0.10;;;;;;;17.62;58.57;100191.00;5074197;28;20032;-78
2022/10/24 04:34:35;;;;;;;1.95;1.45;;;;;;;17.74;58.49;100181.34;5074156;28;20032;-78
2022/10/24 04:37:01;;;;;;;0.10;0.10;;;;;;;17.69;58.75;100186.13;5074175;28;20033;-78
2022/10/24 04:39:27;;;;;;;0.10;0.10;;;;;;;17.73;58.39;100179.66;5074363;28;20028;-78
2022/10/24 04:41:53;;;;;;;0.65;0.65;;;;;;;17.76;57.91;100175.94;5075004;28;20032;-78
2022/10/24 04:44:19;;;;;;;0.00;0.00;;;;;;;17.85;58.33;100179.84;5073360;28;20032;-78
2022/10/24 04:46:46;;;;;;;0.05;0.05;;;;;;;17.91;57.87;100174.13;5073977;28;20561;-79
2022/10/24 04:49:12;;;;;;;0.17;0.17;;;;;;;17.91;57.62;100182.16;5073393;28;20488;-78
2022/10/24 04:51:38;;;;;;;0.03;0.03;;;;;;;17.91;57.12;100182.16;5071642;28;20403;-78
2022/10/24 04:54:05;;;;;;;0.10;0.10;;;;;;;17.88;57.36;100180.53;5072541;28;20051;-78
2022/10/24 04:56:31;;;;;;;0.10;0.10;;;;;;;17.95;57.60;100179.22;5073152;28;20120;-79
2022/10/24 04:58:57;;;;;;;6.93;0.50;;;;;;;17.98;57.78;100180.88;5069674;28;20028;-78
2022/10/24 05:01:23;;;;;;;0.00;0.00;;;;;;;17.98;57.80;100183.56;5072587;28;20047;-79
2022/10/24 05:03:49;;;;;;;0.10;0.10;;;;;;;18.04;57.98;100180.47;5071468;28;20032;-78
2022/10/24 05:06:15;;;;;;;0.10;0.10;;;;;;;17.95;57.99;100191.75;5073332;28;20059;-78
2022/10/24 05:08:41;;;;;;;0.10;0.10;;;;;;;17.96;57.75;100193.50;5073400;28;20025;-78
2022/10/24 05:11:10;;;;;;;0.75;0.75;;;;;;;17.97;57.45;100192.53;5071533;28;20043;-78
2022/10/24 05:13:37;;;;;;;0.10;0.10;;;;;;;17.93;57.50;100189.16;5072592;28;20035;-78
2022/10/24 05:16:04;;;;;;;0.10;0.10;;;;;;;17.90;57.51;100183.13;5070287;28;20418;-77
2022/10/24 05:18:31;;;;;;;0.00;0.00;;;;;;;17.95;57.36;100187.25;5071367;28;20028;-78
2022/10/24 05:20:58;;;;;;;0.10;0.10;;;;;;;17.89;57.44;100194.78;5081463;28;20480;-77
2022/10/24 05:23:24;;;;;;;0.10;0.10;;;;;;;18.02;57.70;100186.88;5072795;28;20112;-78
2022/10/24 05:25:51;;;;;;;1.88;1.73;;;;;;;17.98;57.60;100180.00;5071156;28;20037;-78
2022/10/24 05:28:17;;;;;;;0.10;0.10;;;;;;;17.98;58.05;100180.00;5074640;28;20028;-78
2022/10/24 05:30:44;;;;;;;0.20;0.20;;;;;;;17.89;57.99;100192.94;5071154;28;20028;-77
2022/10/24 05:33:11;;;;;;;0.10;0.10;;;;;;;17.86;58.53;100176.22;5067271;28;20037;-77
2022/10/24 05:35:37;;;;;;;0.45;0.45;;;;;;;17.74;58.41;100192.06;5065702;28;20024;-78
2022/10/24 05:38:04;;;;;;;0.13;0.13;;;;;;;17.76;58.67;100178.59;5071950;28;20031;-78
2022/10/24 05:40:30;;;;;;;0.10;0.10;;;;;;;17.75;58.48;100179.56;5073287;28;20033;-78
2022/10/24 05:42:56;;;;;;;0.08;0.08;;;;;;;17.69;58.85;100180.78;5073766;28;20031;-78
2022/10/24 05:45:22;;;;;;;0.17;0.17;;;;;;;17.62;59.24;100187.47;5071205;28;20048;-77
2022/10/24 05:47:48;;;;;;;0.10;0.10;;;;;;;17.63;59.11;100192.75;5072278;28;20107;-78
2022/10/24 05:50:15;;;;;;;0.10;0.10;;;;;;;17.59;59.15;100198.38;5071654;28;20093;-77
2022/10/24 05:52:41;;;;;;;0.68;0.68;;;;;;;17.53;59.49;100183.50;5074336;28;20097;-77
2022/10/24 05:55:08;;;;;;;0.10;0.10;;;;;;;17.53;59.44;100185.34;5091563;28;20036;-77
2022/10/24 05:57:35;;;;;;;0.00;0.00;;;;;;;17.49;59.43;100194.50;5073839;28;20028;-77
2022/10/24 06:00:04;;;;;;;0.20;0.20;;;;;;;17.49;59.72;100194.50;5074644;28;20519;-77
2022/10/24 06:02:30;;;;;;;0.10;0.10;;;;;;;17.48;59.84;100200.81;5075733;28;20044;-77
2022/10/24 06:04:57;;;;;;;0.10;0.10;;;;;;;17.42;59.80;100205.59;5072570;28;20090;-78
2022/10/24 06:07:24;;;;;;;0.10;0.10;;;;;;;17.58;59.55;100193.94;5071806;28;20119;-77
2022/10/24 06:09:50;;;;;;;0.30;0.30;;;;;;;17.59;59.50;100180.47;5072267;28;20029;-77
2022/10/24 06:12:16;;;;;;;0.10;0.10;;;;;;;17.55;59.65;100188.78;5071604;28;20032;-77
2022/10/24 06:14:43;;;;;;;0.28;0.28;;;;;;;17.60;59.70;100192.91;5076295;28;20168;-78
2022/10/24 06:17:10;;;;;;;0.43;0.43;;;;;;;17.56;59.43;100198.56;5069006;28;20020;-78
2022/10/24 06:19:37;;;;;;;1.92;1.75;;;;;;;17.48;59.66;100201.66;5071412;28;20287;-78
2022/10/24 06:22:05;;;;;;;0.10;0.10;;;;;;;17.47;59.45;100199.97;5070902;28;20100;-79
2022/10/24 06:24:34;;;;;;;0.10;0.10;;;;;;;17.50;59.34;100213.16;5071407;28;20066;-79
2022/10/24 06:27:00;;;;;;;0.10;0.10;;;;;;;17.53;59.32;100220.16;5070582;28;20500;-79
2022/10/24 06:29:26;;;;;;;1.48;1.38;;;;;;;17.54;59.54;100225.41;5070416;28;20587;-78
2022/10/24 06:31:53;;;;;;;0.10;0.10;;;;;;;17.55;59.20;100226.28;5070145;28;20037;-78
2022/10/24 06:34:19;;;;;;;0.20;0.20;;;;;;;17.56;59.37;100238.75;5073644;28;20370;-80
2022/10/24 06:36:45;;;;;;;0.10;0.10;;;;;;;17.69;58.96;100234.34;5072260;28;20028;-79
2022/10/24 06:39:11;;;;;;;0.10;0.10;;;;;;;17.72;59.04;100233.31;5073555;28;20050;-79
2022/10/24 06:41:37;;;;;;;0.10;0.10;;;;;;;17.74;58.86;100242.97;5074255;28;20104;-79
2022/10/24 06:44:03;;;;;;;0.10;0.10;;;;;;;17.76;58.80;100248.25;5074097;28;20449;-79
2022/10/24 06:46:30;;;;;;;0.10;0.10;;;;;;;17.74;58.74;100259.06;5072305;28;20033;-79
2022/10/24 06:48:56;;;;;;;0.70;0.68;;;;;;;17.82;58.51;100253.25;5071191;28;20507;-78
2022/10/24 06:51:23;;;;;;;6.00;0.63;;;;;;;17.84;58.58;100247.81;5072038;28;20044;-78
2022/10/24 06:53:49;;;;;;;0.10;0.10;;;;;;;17.91;58.24;100260.72;5072376;28;20017;-78
2022/10/24 06:56:17;;;;;;;0.10;0.10;;;;;;;17.96;58.28;100249.78;5069792;28;20039;-78
2022/10/24 06:58:43;;;;;;;0.10;0.10;;;;;;;17.98;58.53;100260.41;5070284;28;20059;-78
2022/10/24 07:01:13;;;;;;;0.85;0.85;;;;;;;17.96;58.04;100295.34;5068600;28;20033;-78
2022/10/24 07:03:40;;;;;;;0.75;0.63;;;;;;;17.94;58.18;100260.59;5070854;28;20036;-78
2022/10/24 07:06:08;;;;;;;0.00;0.00;;;;;;;18.00;58.36;100275.44;5072148;28;20028;-79
2022/10/24 07:08:35;;;;;;;0.10;0.10;;;;;;;18.03;58.04;100291.34;5069947;28;20107;-78
2022/10/24 07:11:01;;;;;;;0.10;0.10;;;;;;;18.00;57.88;100279.94;5074136;28;20060;-82
2022/10/24 07:13:27;;;;;;;0.47;0.40;;;;;;;18.09;58.46;100292.78;5076730;28;20096;-78
2022/10/24 07:15:54;;;;;;;0.10;0.10;;;;;;;18.13;58.31;100304.19;5077884;28;20479;-79
2022/10/24 07:18:20;;;;;;;0.10;0.10;;;;;;;18.08;58.47;100299.97;5076215;28;20016;-79
2022/10/24 07:20:46;;;;;;;0.10;0.10;;;;;;;18.12;58.53;100311.38;5076618;28;20025;-78
2022/10/24 07:23:13;;;;;;;0.20;0.20;;;;;;;17.97;58.43;100307.78;5077813;28;20119;-79
2022/10/24 07:25:40;;;;;;;0.65;0.65;;;;;;;18.05;58.63;100305.50;5076170;28;20028;-79
2022/10/24 07:28:07;;;;;;;0.10;0.10;;;;;;;18.07;58.50;100319.69;5079706;28;20031;-78
2022/10/24 07:30:33;;;;;;;0.17;0.17;;;;;;;18.07;58.46;100334.91;5077644;28;20070;-78
2022/10/24 07:32:59;;;;;;;0.43;0.43;;;;;;;18.11;58.41;100321.22;5077987;28;20024;-78
2022/10/24 07:35:26;;;;;;;0.10;0.10;;;;;;;18.12;58.52;100330.13;5076453;28;20032;-79
2022/10/24 07:37:52;;;;;;;0.43;0.32;;;;;;;18.13;58.71;100331.88;5078275;28;20036;-79
2022/10/24 07:40:18;;;;;;;0.10;0.10;;;;;;;18.16;58.57;100331.66;5077240;28;20036;-78
2022/10/24 07:42:45;;;;;;;0.00;0.00;;;;;;;18.18;58.85;100358.38;5078700;28;20098;-79
2022/10/24 07:45:11;;;;;;;0.10;0.10;;;;;;;18.16;59.19;100357.63;5077388;28;20107;-77
2022/10/24 07:47:38;;;;;;;0.35;0.32;;;;;;;18.09;59.24;100355.31;5075693;28;20033;-78
2022/10/24 07:50:05;;;;;;;0.57;0.57;;;;;;;18.07;59.85;100346.50;5076992;28;20046;-78
2022/10/24 07:52:31;;;;;;;0.10;0.10;;;;;;;17.98;60.35;100373.84;5078054;28;20084;-82
2022/10/24 07:54:57;;;;;;;0.10;0.10;;;;;;;17.97;60.29;100366.75;5078330;28;20459;-78
2022/10/24 07:57:24;;;;;;;0.10;0.10;;;;;;;17.94;60.56;100365.13;5079526;28;20032;-78
2022/10/24 07:59:50;;;;;;;0.05;0.05;;;;;;;17.94;60.81;100377.66;5079917;28;20391;-78
2022/10/24 08:02:17;;;;;;;0.10;0.10;;;;;;;17.82;61.16;100372.97;5086959;28;20042;-80
2022/10/24 08:04:43;;;;;;;0.10;0.10;;;;;;;17.89;60.93;100385.06;5078395;28;20404;-79
2022/10/24 08:07:12;;;;;;;0.38;0.38;;;;;;;17.92;61.39;100368.81;5080735;28;20036;-78
2022/10/24 08:09:40;;;;;;;0.10;0.10;;;;;;;17.92;61.31;100369.66;5072855;28;20079;-78
2022/10/24 08:12:06;;;;;;;0.00;0.00;;;;;;;17.81;61.77;100390.00;5075397;28;20032;-78
2022/10/24 08:14:32;;;;;;;0.10;0.10;;;;;;;17.95;61.95;100395.47;5076073;28;20021;-77
2022/10/24 08:16:59;;;;;;;0.05;0.05;;;;;;;17.95;62.22;100395.47;5075488;28;20409;-79
2022/10/24 08:19:25;;;;;;;0.00;0.00;;;;;;;17.92;62.07;100393.78;5078319;28;20031;-78
2022/10/24 08:21:52;;;;;;;0.22;0.22;;;;;;;18.02;62.44;100406.66;5079137;28;20484;-78
2022/10/24 08:24:18;;;;;;;0.10;0.10;;;;;;;18.03;62.45;100409.28;5073390;28;20107;-78
2022/10/24 08:26:44;;;;;;;0.10;0.10;;;;;;;17.95;63.56;100422.25;5075066;28;20036;-77
2022/10/24 08:29:11;;;;;;;2.83;1.35;;;;;;;17.86;64.11;100410.22;5074108;28;20492;-78
2022/10/24 08:31:37;;;;;;;0.08;0.08;;;;;;;17.76;64.90;100427.78;5070824;28;20044;-78
2022/10/24 08:34:05;;;;;;;0.10;0.10;;;;;;;17.61;65.26;100422.34;5074230;28;20039;-78
2022/10/24 08:36:33;;;;;;;0.00;0.00;;;;;;;17.42;66.71;100422.50;5072972;28;20024;-78
2022/10/24 08:39:00;;;;;;;4.00;1.77;;;;;;;17.39;67.08;100425.34;5072717;28;20017;-78
2022/10/24 08:44:18;;;;;;;0.03;0.03;;;;;;;17.31;67.34;100432.94;5102385;27;20397;-77
2022/10/24 08:47:14;;;;;;;0.35;0.35;;;;;;;17.38;67.52;100438.81;5083496;28;20801;-78
2022/10/24 08:49:47;;;;;;;0.10;0.10;;;;;;;17.34;67.23;100434.59;5074870;28;20036;-79
2022/10/24 08:52:31;;;;;;;0.10;0.10;;;;;;;17.29;66.71;100443.72;5083661;28;20016;-79
2022/10/24 08:55:08;;;;;;;0.10;0.10;;;;;;;17.30;67.06;100444.59;5079731;28;20063;-78
2022/10/24 08:57:34;;;;;;;0.10;0.10;;;;;;;17.19;66.83;100449.69;5076581;28;20039;-78
2022/10/24 09:00:14;;;;;;;0.40;0.40;;;;;;;17.13;66.88;100451.75;5086179;28;20407;-80
2022/10/24 09:02:44;;;;;;;0.10;0.10;;;;;;;17.19;67.45;100465.75;5083078;28;20483;-77
2022/10/24 09:08:00;;;;;;;0.10;0.10;;;;;;;17.25;67.39;100465.41;5097571;27;20407;-80
2022/10/24 09:10:45;;;;;;;0.10;0.10;;;;;;;17.23;67.16;100473.50;5088149;28;20047;-79
2022/10/24 09:13:14;;;;;;;0.10;0.10;;;;;;;17.18;66.92;100474.72;5092970;28;20044;-79
2022/10/24 09:15:43;;;;;;;0.10;0.10;;;;;;;17.16;67.48;100477.47;5088294;28;20025;-79
2022/10/24 09:18:33;;;;;;;0.10;0.10;;;;;;;17.38;66.74;100484.34;5090282;28;20031;-79
2022/10/24 09:21:00;;;;;;;0.10;0.10;;;;;;;17.17;66.96;100481.00;5090644;28;20079;-78
2022/10/24 09:23:27;;;;;;;0.70;0.70;;;;;;;17.19;66.65;100498.72;5093728;28;20023;-78
2022/10/24 09:25:57;;;;;;;0.20;0.20;;;;;;;17.19;66.71;100496.03;5097318;28;20042;-78
2022/10/24 09:28:23;;;;;;;0.00;0.00;;;;;;;17.13;67.24;100494.56;5090442;28;20809;-78
2022/10/24 09:30:50;;;;;;;0.10;0.10;;;;;;;17.13;67.26;100510.63;5088267;28;20064;-78
2022/10/24 09:33:34;;;;;;;0.10;0.10;;;;;;;17.26;67.30;100512.66;5092541;28;20030;-79
2022/10/24 09:36:03;;;;;;;0.10;0.10;;;;;;;17.11;67.61;100517.00;5091806;28;20024;-79
2022/10/24 09:38:33;;;;;;;0.25;0.25;;;;;;;17.09;67.94;100518.91;5092526;28;20055;-79
2022/10/24 09:41:03;;;;;;;0.25;0.25;;;;;;;17.25;68.08;100513.59;5088815;28;20111;-79
2022/10/24 09:46:25;;;;;;;0.10;0.10;;;;;;;17.39;67.47;100527.09;5087785;27;20391;-78
2022/10/24 09:48:57;;;;;;;0.10;0.10;;;;;;;17.44;66.67;100517.00;5083177;28;20445;-78
2022/10/24 10:07:47;;;;;;;1.90;1.20;;;;;;;17.71;64.75;100551.28;5069993;28;20387;-78
2022/10/24 10:10:32;;;;;;;5.95;1.65;;;;;;;17.62;64.70;100567.88;5062588;28;20170;-80
2022/10/24 10:13:05;;;;;;;0.00;0.00;;;;;;;17.62;64.11;100557.16;5071767;28;20083;-79
2022/10/24 10:15:43;;;;;;;0.10;0.10;;;;;;;17.62;64.24;100567.88;5055589;28;20025;-78
2022/10/24 10:18:32;;;;;;;0.38;0.35;;;;;;;17.83;64.20;100575.69;5052053;28;20032;-79
2022/10/24 10:21:19;;;;;;;0.10;0.10;;;;;;;17.89;63.36;100572.66;5052381;28;20056;-79
2022/10/24 10:29:04;;;;;;;0.10;0.10;;;;;;;18.08;63.03;100580.56;5110769;27;20363;-78
2022/10/24 10:39:59;;;;;;;0.10;0.10;;;;;;;18.21;62.54;100611.13;5107223;27;20358;-79
2022/10/24 10:43:05;;;;;;;0.25;0.25;;;;;;;18.31;62.69;100606.13;5095102;28;20040;-79
2022/10/24 10:45:54;;;;;;;0.13;0.13;;;;;;;18.26;62.06;100616.25;5086848;28;20037;-79
2022/10/24 10:51:10;;;;;;;0.00;0.00;;;;;;;18.22;62.90;100630.78;5109858;27;20108;-76
2022/10/24 10:54:01;;;;;;;0.20;0.20;;;;;;;17.97;63.00;100633.91;5110099;28;20042;-79
2022/10/24 10:59:45;;;;;;;0.10;0.10;;;;;;;17.83;64.63;100637.31;5110576;27;20343;-79
2022/10/24 11:02:39;;;;;;;0.10;0.10;;;;;;;17.72;65.18;100635.19;5107158;28;20040;-79
2022/10/24 11:05:34;;;;;;;0.10;0.10;;;;;;;17.37;65.60;100645.97;5095591;28;20042;-79
2022/10/24 11:10:45;;;;;;;0.10;0.10;;;;;;;17.17;67.29;100649.66;5102193;27;1167417;-80
2022/10/24 11:13:19;;;;;;;0.10;0.10;;;;;;;17.12;67.48;100658.81;5127874;27;20027;-79
2022/10/24 11:15:49;;;;;;;0.80;0.80;;;;;;;17.06;68.32;100647.53;5108615;28;20027;-79
2022/10/24 11:18:29;;;;;;;0.10;0.10;;;;;;;17.10;68.70;100662.50;5106531;28;20028;-77
2022/10/24 11:21:05;;;;;;;0.10;0.10;;;;;;;17.12;68.40;100653.44;5105191;28;20040;-79
2022/10/24 11:23:39;;;;;;;0.10;0.10;;;;;;;17.22;68.31;100647.63;5100323;28;20032;-78
2022/10/24 11:26:21;;;;;;;0.10;0.10;;;;;;;17.37;68.01;100662.03;5111860;28;20024;-80
2022/10/24 11:29:11;;;;;;;0.20;0.20;;;;;;;17.46;67.71;100648.19;5108093;28;20031;-80
2022/10/24 11:31:42;;;;;;;0.10;0.10;;;;;;;17.57;66.94;100643.13;5101338;28;20024;-80
2022/10/24 11:39:31;;;;;;;0.82;0.82;;;;;;;17.78;66.84;100659.88;5111375;27;20366;-79
2022/10/24 11:42:21;;;;;;;0.10;0.10;;;;;;;17.86;66.55;100669.34;5104711;28;20099;-79
2022/10/24 11:45:08;;;;;;;0.10;0.10;;;;;;;17.76;67.01;100666.28;5104049;28;20055;-79
2022/10/24 11:55:53;;;;;;;0.10;0.10;;;;;;;17.34;67.80;100673.75;5091775;27;20398;-78
2022/10/24 11:58:22;;;;;;;0.10;0.10;;;;;;;17.30;68.79;100661.50;5094430;28;20030;-78
2022/10/24 12:06:41;;;;;;;0.10;0.10;;;;;;;17.28;69.01;100674.06;5110052;27;20362;-77
2022/10/24 12:09:33;;;;;;;0.10;0.10;;;;;;;17.30;69.62;100683.75;5105114;28;20102;-78
2022/10/24 12:15:42;;;;;;;0.10;0.10;;;;;;;17.63;68.71;100674.06;5097201;27;1187421;-78
2022/10/24 12:18:23;;;;;;;0.10;0.10;;;;;;;17.57;67.71;100685.09;5122943;28;20506;-77
2022/10/24 12:20:53;;;;;;;0.10;0.10;;;;;;;17.50;67.33;100678.34;5128959;27;20491;-78
2022/10/24 12:23:26;;;;;;;0.57;0.57;;;;;;;17.50;67.49;100683.72;5125584;28;20030;-78
2022/10/24 12:28:56;;;;;;;0.93;0.93;;;;;;;17.35;67.50;100686.22;5100165;27;20337;-78
2022/10/24 12:31:26;;;;;;;;;;;;;;;17.40;67.42;100692.19;5090999;28;20044;-79
2022/10/24 12:37:29;;;;;;;0.10;0.10;;;;;;;17.17;69.50;100703.22;5101226;27;20363;-78
2022/10/24 12:39:56;;;;;;;0.10;0.10;;;;;;;17.02;70.81;100699.47;5092079;28;20040;-79
2022/10/24 12:47:43;;;;;;;0.20;0.20;;;;;;;16.75;71.61;100708.75;5111988;27;20376;-78
2022/10/24 12:53:15;;;;;;;0.10;0.10;;;;;;;16.65;72.87;100696.75;5050203;28;20408;-78
2022/10/24 13:01:02;;;;;;;0.10;0.10;;;;;;;16.56;73.02;100697.19;5091637;27;20385;-78
2022/10/24 13:06:42;;;;;;;0.10;0.10;;;;;;;16.62;72.74;100703.13;5110602;27;20776;-78
2022/10/24 13:12:21;;;;;;;1.20;1.10;;;;;;;16.67;73.00;100708.25;5055960;28;20895;-78
2022/10/24 13:22:59;;;;;;;0.10;0.10;;;;;;;16.66;71.90;100706.53;5059790;28;20398;-78
2022/10/24 13:38:56;;;;;;;0.52;0.52;;;;;;;16.87;70.83;100706.41;5111579;27;20396;-79